createdAt,value
2018-12-01T00:02:05.005Z,100802.51
2018-12-01T00:04:34.016Z,100801.69
2018-12-01T00:07:03.087Z,100806.95
2018-12-01T00:09:32.138Z,100812.67
2018-12-01T00:12:01.302Z,100810.06
2018-12-01T00:14:30.314Z,100815.73
2018-12-01T00:16:59.302Z,100814.01
2018-12-01T00:19:28.389Z,100815.78
2018-12-01T00:21:57.483Z,100812.20
2018-12-01T00:24:26.465Z,100815.25
2018-12-01T00:26:55.464Z,100813.52
2018-12-01T00:29:24.537Z,100810.45
2018-12-01T00:31:53.527Z,100812.25
2018-12-01T00:34:25.492Z,100813.98
2018-12-01T00:36:54.507Z,100805.69
2018-12-01T00:39:23.514Z,100814.39
2018-12-01T00:41:52.578Z,100805.27
2018-12-01T00:44:21.591Z,100811.84
2018-12-01T00:46:50.803Z,100821.03
2018-12-01T00:51:55.089Z,100815.31
2018-12-01T00:54:24.237Z,100824.47
2018-12-01T00:56:53.249Z,100820.95
2018-12-01T00:59:22.297Z,100819.17
2018-12-01T01:01:51.304Z,100815.23
2018-12-01T01:04:20.408Z,100821.40
2018-12-01T01:06:49.446Z,100822.71
2018-12-01T01:09:18.471Z,100810.47
2018-12-01T01:11:47.521Z,100810.06
2018-12-01T01:14:16.536Z,100812.28
2018-12-01T01:16:45.562Z,100819.77
2018-12-01T01:19:14.587Z,100820.64
2018-12-01T01:21:43.619Z,100811.90
2018-12-01T01:24:12.624Z,100817.63
2018-12-01T01:26:41.637Z,100816.75
2018-12-01T01:29:10.631Z,100813.27
2018-12-01T01:31:39.619Z,100817.20
2018-12-01T01:34:08.659Z,100810.16
2018-12-01T01:36:37.671Z,100809.27
2018-12-01T01:39:07.883Z,100807.05
2018-12-01T01:41:36.898Z,100808.34
2018-12-01T01:44:05.937Z,100816.70
2018-12-01T01:46:34.981Z,100810.13
2018-12-01T01:49:04.003Z,100808.41
2018-12-01T01:51:32.993Z,100808.01
2018-12-01T01:54:02.002Z,100803.23
2018-12-01T01:56:31.032Z,100801.05
2018-12-01T01:59:00.014Z,100802.34
2018-12-01T02:01:29.021Z,100801.94
2018-12-01T02:03:58.010Z,100803.69
2018-12-01T02:06:27.015Z,100802.39
2018-12-01T02:08:57.248Z,100799.77
2018-12-01T02:11:26.289Z,100801.95
2018-12-01T02:13:55.367Z,100792.80
2018-12-01T02:16:24.539Z,100795.41
2018-12-01T02:18:53.656Z,100798.50
2018-12-01T02:21:25.106Z,100798.94
2018-12-01T02:23:54.279Z,100791.50
2018-12-01T02:26:23.282Z,100795.88
2018-12-01T02:28:52.249Z,100795.00
2018-12-01T02:31:21.263Z,100791.51
2018-12-01T02:33:51.170Z,100786.26
2018-12-01T02:36:20.202Z,100778.40
2018-12-01T02:38:49.190Z,100777.09
2018-12-01T02:41:18.306Z,100782.77
2018-12-01T02:43:57.198Z,100777.09
2018-12-01T02:46:42.186Z,100784.08
2018-12-01T02:49:11.178Z,100781.88
2018-12-01T02:51:40.226Z,100786.27
2018-12-01T02:54:09.249Z,100785.41
2018-12-01T02:56:38.308Z,100788.89
2018-12-01T02:59:07.311Z,100788.91
2018-12-01T03:01:36.313Z,100791.95
2018-12-01T03:04:05.366Z,100784.55
2018-12-01T03:06:34.377Z,100783.19
2018-12-01T03:09:03.400Z,100784.52
2018-12-01T03:11:32.439Z,100784.52
2018-12-01T03:14:01.427Z,100791.95
2018-12-01T03:16:30.462Z,100794.13
2018-12-01T03:18:59.481Z,100786.27
2018-12-01T03:21:28.491Z,100798.08
2018-12-01T03:23:57.496Z,100795.91
2018-12-01T03:26:27.545Z,100802.87
2018-12-01T03:28:56.548Z,100804.66
2018-12-01T03:31:25.662Z,100815.12
2018-12-01T03:33:54.808Z,100813.34
2018-12-01T03:36:23.927Z,100810.27
2018-12-01T03:38:52.919Z,100811.13
2018-12-01T03:41:21.939Z,100805.44
2018-12-01T03:43:50.991Z,100801.94
2018-12-01T03:46:19.990Z,100797.62
2018-12-01T03:48:49.010Z,100804.14
2018-12-01T03:51:18.010Z,100798.02
2018-12-01T03:53:47.012Z,100797.17
2018-12-01T03:56:16.003Z,100791.52
2018-12-01T03:58:45.049Z,100788.00
2018-12-01T04:01:14.039Z,100800.69
2018-12-01T04:03:43.031Z,100796.31
2018-12-01T04:06:12.049Z,100798.50
2018-12-01T04:08:41.070Z,100795.86
2018-12-01T04:11:10.081Z,100792.80
2018-12-01T04:13:39.084Z,100794.52
2018-12-01T04:16:08.099Z,100800.62
2018-12-01T04:18:37.235Z,100804.08
2018-12-01T04:21:06.651Z,100803.17
2018-12-01T04:23:35.646Z,100809.70
2018-12-01T04:26:04.639Z,100804.92
2018-12-01T04:28:33.740Z,100804.92
2018-12-01T04:31:02.733Z,100810.13
2018-12-01T04:33:31.730Z,100804.89
2018-12-01T04:36:00.766Z,100806.59
2018-12-01T04:38:29.807Z,100807.00
2018-12-01T04:40:58.819Z,100804.35
2018-12-01T04:43:27.834Z,100805.25
2018-12-01T04:45:56.837Z,100805.64
2018-12-01T04:48:25.894Z,100815.64
2018-12-01T04:50:54.869Z,100807.30
2018-12-01T04:53:23.961Z,100812.91
2018-12-01T04:55:52.950Z,100816.36
2018-12-01T04:58:22.054Z,100819.37
2018-12-01T05:00:51.037Z,100825.50
2018-12-01T05:03:20.066Z,100828.54
2018-12-01T05:05:49.101Z,100829.83
2018-12-01T05:08:18.115Z,100827.98
2018-12-01T05:10:47.132Z,100824.92
2018-12-01T05:13:16.144Z,100827.95
2018-12-01T05:15:45.184Z,100830.59
2018-12-01T05:18:14.171Z,100822.26
2018-12-01T05:20:43.200Z,100822.70
2018-12-01T05:23:12.232Z,100827.48
2018-12-01T05:25:41.251Z,100826.23
2018-12-01T05:28:10.252Z,100827.92
2018-12-01T05:30:40.367Z,100818.25
2018-12-01T05:33:09.389Z,100814.81
2018-12-01T05:35:38.376Z,100823.11
2018-12-01T05:38:07.401Z,100820.48
2018-12-01T05:40:36.375Z,100823.11
2018-12-01T05:43:05.991Z,100825.27
2018-12-01T05:45:34.998Z,100826.11
2018-12-01T05:48:04.028Z,100831.34
2018-12-01T05:50:33.048Z,100818.22
2018-12-01T05:53:02.035Z,100821.69
2018-12-01T05:55:31.056Z,100833.22
2018-12-01T05:58:00.091Z,100837.10
2018-12-01T06:00:29.153Z,100841.02
2018-12-01T06:02:58.169Z,100840.20
2018-12-01T06:05:27.187Z,100830.09
2018-12-01T06:07:56.210Z,100846.33
2018-12-01T06:10:25.403Z,100842.80
2018-12-01T06:12:54.361Z,100842.80
2018-12-01T06:15:23.355Z,100840.23
2018-12-01T06:17:55.423Z,100840.64
2018-12-01T06:20:24.484Z,100837.60
2018-12-01T06:22:56.326Z,100841.11
2018-12-01T06:25:25.311Z,100842.45
2018-12-01T06:27:54.332Z,100843.41
2018-12-01T06:30:23.359Z,100846.47
2018-12-01T06:32:52.761Z,100840.31
2018-12-01T06:35:21.812Z,100844.26
2018-12-01T06:37:50.849Z,100840.70
2018-12-01T06:40:20.694Z,100850.83
2018-12-01T06:42:49.833Z,100859.16
2018-12-01T06:45:18.991Z,100859.05
2018-12-01T06:47:47.988Z,100861.73
2018-12-01T06:50:18.065Z,100863.07
2018-12-01T06:52:47.066Z,100865.65
2018-12-01T06:55:16.050Z,100867.89
2018-12-01T06:57:46.118Z,100865.65
2018-12-01T07:00:16.853Z,100865.18
2018-12-01T07:02:46.479Z,100867.43
2018-12-01T07:05:16.293Z,100863.05
2018-12-01T07:07:45.310Z,100863.42
2018-12-01T07:10:16.417Z,100868.25
2018-12-01T07:12:49.613Z,100865.97
2018-12-01T07:15:20.451Z,100859.02
2018-12-01T07:17:49.516Z,100861.62
2018-12-01T07:20:18.539Z,100860.27
2018-12-01T07:22:47.642Z,100863.38
2018-12-01T07:25:16.691Z,100863.28
2018-12-01T07:27:45.726Z,100844.89
2018-12-01T07:30:15.297Z,100842.23
2018-12-01T07:32:45.050Z,100847.02
2018-12-01T07:35:14.254Z,100852.72
2018-12-01T07:37:43.398Z,100851.81
2018-12-01T07:40:13.971Z,100855.35
2018-12-01T07:42:43.887Z,100851.30
2018-12-01T07:45:14.101Z,100858.36
2018-12-01T07:47:43.277Z,100863.58
2018-12-01T07:50:15.563Z,100854.78
2018-12-01T07:52:46.286Z,100860.84
2018-12-01T07:55:15.338Z,100864.80
2018-12-01T07:57:44.471Z,100859.56
2018-12-01T08:00:14.781Z,100859.94
2018-12-01T08:02:46.628Z,100866.11
2018-12-01T08:05:16.660Z,100859.05
2018-12-01T08:07:49.614Z,100853.42
2018-12-01T08:10:19.735Z,100844.51
2018-12-01T08:12:48.829Z,100845.78
2018-12-01T08:15:18.499Z,100837.92
2018-12-01T08:17:47.880Z,100834.86
2018-12-01T08:20:19.860Z,100829.11
2018-12-01T08:22:51.729Z,100816.31
2018-12-01T08:25:23.784Z,100819.33
2018-12-01T08:27:56.066Z,100825.92
2018-12-01T08:30:27.326Z,100819.73
2018-12-01T08:32:57.882Z,100826.75
2018-12-01T08:35:28.174Z,100828.38
2018-12-01T08:37:58.633Z,100836.36
2018-12-01T08:40:28.745Z,100839.83
2018-12-01T08:42:57.763Z,100841.05
2018-12-01T08:45:26.808Z,100851.16
2018-12-01T08:47:55.881Z,100846.71
2018-12-01T08:50:25.041Z,100845.44
2018-12-01T08:52:54.169Z,100851.09
2018-12-01T08:55:25.198Z,100849.25
2018-12-01T08:57:55.748Z,100847.50
2018-12-01T09:00:31.924Z,100837.54
2018-12-01T09:03:03.703Z,100841.00
2018-12-01T09:05:32.907Z,100835.78
2018-12-01T09:08:01.926Z,100833.10
2018-12-01T09:10:30.980Z,100830.47
2018-12-01T09:13:01.807Z,100841.92
2018-12-01T09:15:29.066Z,100839.73
2018-12-01T09:17:58.074Z,100837.84
2018-12-01T09:20:27.114Z,100840.08
2018-12-01T09:22:56.270Z,100835.56
2018-12-01T09:25:25.341Z,100836.87
2018-12-01T09:27:54.445Z,100838.19
2018-12-01T09:30:24.842Z,100844.33
2018-12-01T09:32:54.922Z,100845.12
2018-12-01T09:35:24.736Z,100852.19
2018-12-01T09:37:53.839Z,100849.95
2018-12-01T09:40:23.592Z,100841.25
2018-12-01T09:42:52.634Z,100845.52
2018-12-01T09:45:23.622Z,100841.11
2018-12-01T09:47:53.597Z,100841.50
2018-12-01T09:50:22.700Z,100843.61
2018-12-01T09:52:53.030Z,100848.81
2018-12-01T09:55:25.354Z,100850.86
2018-12-01T09:57:54.481Z,100857.79
2018-12-01T10:00:27.792Z,100855.62
2018-12-01T10:02:56.825Z,100851.73
2018-12-01T10:05:25.921Z,100839.31
2018-12-01T10:07:55.094Z,100840.14
2018-12-01T10:10:24.938Z,100840.53
2018-12-01T10:12:55.184Z,100835.77
2018-12-01T10:15:26.221Z,100832.51
2018-12-01T10:17:55.283Z,100837.23
2018-12-01T10:20:25.601Z,100836.24
2018-12-01T10:22:54.709Z,100843.66
2018-12-01T10:25:24.684Z,100838.55
2018-12-01T10:27:53.730Z,100843.95
2018-12-01T10:30:22.914Z,100840.66
2018-12-01T10:32:52.468Z,100850.91
2018-12-01T10:35:23.754Z,100846.80
2018-12-01T10:38:03.487Z,100846.69
2018-12-01T10:40:32.557Z,100850.05
2018-12-01T10:43:01.770Z,100843.66
2018-12-01T10:45:30.821Z,100848.02
2018-12-01T10:47:59.891Z,100843.11
2018-12-01T10:50:28.940Z,100850.87
2018-12-01T10:52:57.963Z,100851.63
2018-12-01T10:55:29.047Z,100848.59
2018-12-01T10:58:01.408Z,100848.48
2018-12-01T11:00:36.291Z,100848.05
2018-12-01T11:03:06.713Z,100846.72
2018-12-01T11:05:36.712Z,100857.09
2018-12-01T11:08:07.679Z,100852.70
2018-12-01T11:10:36.854Z,100843.08
2018-12-01T11:13:06.042Z,100847.86
2018-12-01T11:15:35.096Z,100840.31
2018-12-01T11:18:04.247Z,100836.73
2018-12-01T11:20:33.270Z,100836.63
2018-12-01T11:23:02.319Z,100837.24
2018-12-01T11:25:31.335Z,100825.92
2018-12-01T11:28:00.343Z,100822.05
2018-12-01T11:30:29.374Z,100821.52
2018-12-01T11:32:58.403Z,100810.40
2018-12-01T11:35:32.390Z,100801.62
2018-12-01T11:38:01.504Z,100800.08
2018-12-01T11:40:30.571Z,100796.03
2018-12-01T11:42:59.615Z,100795.89
2018-12-01T11:45:28.629Z,100798.67
2018-12-01T11:47:57.661Z,100798.15
2018-12-01T11:50:26.750Z,100796.53
2018-12-01T11:52:55.820Z,100795.44
2018-12-01T11:55:24.867Z,100802.58
2018-12-01T11:57:54.365Z,100793.27
2018-12-01T12:00:24.787Z,100801.33
2018-12-01T12:02:54.268Z,100805.72
2018-12-01T12:05:23.939Z,100801.10
2018-12-01T12:08:04.222Z,100794.64
2018-12-01T12:10:33.208Z,100794.58
2018-12-01T12:13:02.278Z,100794.52
2018-12-01T12:15:31.373Z,100786.06
2018-12-01T12:18:03.783Z,100788.85
2018-12-01T12:20:32.786Z,100786.73
2018-12-01T12:23:01.857Z,100785.93
2018-12-01T12:25:30.884Z,100781.44
2018-12-01T12:28:16.929Z,100773.41
2018-12-01T12:30:45.945Z,100768.60
2018-12-01T12:33:15.596Z,100765.38
2018-12-01T12:35:44.691Z,100770.81
2018-12-01T12:38:13.745Z,100768.90
2018-12-01T12:40:42.795Z,100771.18
2018-12-01T12:43:11.905Z,100773.68
2018-12-01T12:45:41.169Z,100769.86
2018-12-01T12:48:10.240Z,100770.38
2018-12-01T12:50:39.235Z,100770.73
2018-12-01T12:53:08.264Z,100766.64
2018-12-01T12:55:39.254Z,100762.76
2018-12-01T12:58:08.299Z,100767.41
2018-12-01T13:00:37.403Z,100768.02
2018-12-01T13:03:08.711Z,100774.41
2018-12-01T13:05:46.102Z,100775.30
2018-12-01T13:08:16.660Z,100769.36
2018-12-01T13:10:45.646Z,100763.23
2018-12-01T13:13:14.682Z,100769.48
2018-12-01T13:15:43.728Z,100767.23
2018-12-01T13:18:27.811Z,100771.31
2018-12-01T13:20:56.848Z,100769.88
2018-12-01T13:23:25.860Z,100760.89
2018-12-01T13:25:54.883Z,100771.34
2018-12-01T13:28:24.808Z,100768.23
2018-12-01T13:30:56.271Z,100777.70
2018-12-01T13:33:25.700Z,100765.95
2018-12-01T13:35:54.873Z,100769.72
2018-12-01T13:38:23.968Z,100779.01
2018-12-01T13:41:00.745Z,100779.82
2018-12-01T13:43:29.801Z,100775.94
2018-12-01T13:45:58.840Z,100781.16
2018-12-01T13:48:27.882Z,100780.70
2018-12-01T13:51:08.639Z,100785.63
2018-12-01T13:53:37.670Z,100778.95
2018-12-01T13:56:06.706Z,100779.47
2018-12-01T13:58:35.787Z,100779.82
2018-12-01T14:01:04.843Z,100782.41
2018-12-01T14:03:33.853Z,100778.70
2018-12-01T14:06:02.910Z,100780.84
2018-12-01T14:08:34.934Z,100783.92
2018-12-01T14:11:03.959Z,100781.80
2018-12-01T14:13:35.093Z,100778.27
2018-12-01T14:16:04.148Z,100785.64
2018-12-01T14:18:33.158Z,100779.55
2018-12-01T14:21:02.192Z,100782.97
2018-12-01T14:23:31.247Z,100776.75
2018-12-01T14:26:00.266Z,100774.70
2018-12-01T14:28:29.284Z,100779.53
2018-12-01T14:30:58.477Z,100772.55
2018-12-01T14:33:27.715Z,100771.11
2018-12-01T14:35:56.773Z,100769.27
2018-12-01T14:38:25.809Z,100769.78
2018-12-01T14:40:54.965Z,100760.70
2018-12-01T14:43:24.025Z,100761.33
2018-12-01T14:45:53.680Z,100761.48
2018-12-01T14:48:28.202Z,100761.05
2018-12-01T14:50:58.121Z,100766.37
2018-12-01T14:53:27.210Z,100763.87
2018-12-01T14:55:56.205Z,100758.09
2018-12-01T14:58:25.658Z,100742.41
2018-12-01T15:00:54.798Z,100738.38
2018-12-01T15:03:23.848Z,100737.42
2018-12-01T15:05:52.860Z,100732.78
2018-12-01T15:08:21.875Z,100731.03
2018-12-01T15:10:50.864Z,100736.00
2018-12-01T15:13:19.991Z,100731.48
2018-12-01T15:15:49.218Z,100736.36
2018-12-01T15:18:18.248Z,100741.13
2018-12-01T15:20:47.751Z,100738.56
2018-12-01T15:23:16.982Z,100740.76
2018-12-01T15:25:45.990Z,100736.23
2018-12-01T15:28:15.071Z,100735.37
2018-12-01T15:30:44.306Z,100724.35
2018-12-01T15:33:14.692Z,100726.05
2018-12-01T15:35:45.791Z,100719.53
2018-12-01T15:38:15.013Z,100716.00
2018-12-01T15:40:46.298Z,100722.11
2018-12-01T15:43:15.420Z,100714.56
2018-12-01T15:45:44.612Z,100714.24
2018-12-01T15:48:13.685Z,100711.11
2018-12-01T15:51:01.809Z,100701.95
2018-12-01T15:53:34.379Z,100701.20
2018-12-01T15:56:03.422Z,100692.24
2018-12-01T15:58:32.453Z,100690.11
2018-12-01T16:01:01.475Z,100683.20
2018-12-01T16:03:30.567Z,100680.25
2018-12-01T16:06:00.256Z,100676.81
2018-12-01T16:08:29.303Z,100675.23
2018-12-01T16:10:58.334Z,100674.36
2018-12-01T16:13:27.848Z,100664.77
2018-12-01T16:16:15.341Z,100668.33
2018-12-01T16:18:44.374Z,100666.27
2018-12-01T16:21:20.694Z,100668.85
2018-12-01T16:23:53.486Z,100678.50
2018-12-01T16:26:22.513Z,100678.89
2018-12-01T16:28:53.001Z,100669.72
2018-12-01T16:31:22.006Z,100666.20
2018-12-01T16:33:51.045Z,100657.47
2018-12-01T16:36:24.415Z,100652.28
2018-12-01T16:38:56.665Z,100648.00
2018-12-01T16:41:27.996Z,100651.08
2018-12-01T16:43:57.021Z,100644.11
2018-12-01T16:46:26.101Z,100641.55
2018-12-01T16:48:55.310Z,100643.80
2018-12-01T16:51:24.343Z,100639.85
2018-12-01T16:53:53.364Z,100636.49
2018-12-01T16:56:22.393Z,100635.13
2018-12-01T16:58:56.409Z,100639.14
2018-12-01T17:01:25.438Z,100634.36
2018-12-01T17:03:57.390Z,100623.41
2018-12-01T17:06:26.439Z,100617.23
2018-12-01T17:08:56.507Z,100613.33
2018-12-01T17:11:25.522Z,100617.68
2018-12-01T17:13:54.520Z,100629.05
2018-12-01T17:16:23.528Z,100635.23
2018-12-01T17:18:52.553Z,100635.20
2018-12-01T17:21:21.619Z,100637.82
2018-12-01T17:23:52.392Z,100630.31
2018-12-01T17:26:21.579Z,100627.61
2018-12-01T17:28:51.516Z,100625.41
2018-12-01T17:31:20.645Z,100630.36
2018-12-01T17:33:49.662Z,100628.98
2018-12-01T17:36:18.661Z,100628.92
2018-12-01T17:38:47.660Z,100627.61
2018-12-01T17:41:20.506Z,100620.09
2018-12-01T17:43:53.054Z,100618.83
2018-12-01T17:46:22.072Z,100616.63
2018-12-01T17:48:51.079Z,100609.72
2018-12-01T17:51:20.096Z,100607.42
2018-12-01T17:53:51.382Z,100604.34
2018-12-01T17:56:20.424Z,100607.41
2018-12-01T17:58:49.464Z,100600.08
2018-12-01T18:01:18.471Z,100593.04
2018-12-01T18:03:48.605Z,100596.56
2018-12-01T18:06:17.612Z,100591.67
2018-12-01T18:08:46.639Z,100583.89
2018-12-01T18:11:16.197Z,100570.17
2018-12-01T18:13:55.857Z,100582.52
2018-12-01T18:16:24.895Z,100585.98
2018-12-01T18:18:53.932Z,100583.40
2018-12-01T18:21:22.955Z,100576.80
2018-12-01T18:23:51.987Z,100573.28
2018-12-01T18:26:20.982Z,100575.19
2018-12-01T18:28:51.250Z,100577.33
2018-12-01T18:31:23.870Z,100572.13
2018-12-01T18:34:00.979Z,100573.01
2018-12-01T18:36:35.638Z,100574.27
2018-12-01T18:39:09.014Z,100574.39
2018-12-01T18:41:38.067Z,100573.49
2018-12-01T18:44:07.133Z,100585.02
2018-12-01T18:46:37.427Z,100576.26
2018-12-01T18:49:06.983Z,100586.33
2018-12-01T18:51:36.033Z,100583.72
2018-12-01T18:54:05.332Z,100582.77
2018-12-01T18:56:41.267Z,100584.20
2018-12-01T18:59:10.289Z,100576.30
2018-12-01T19:01:39.296Z,100578.88
2018-12-01T19:04:08.359Z,100581.02
2018-12-01T19:06:37.361Z,100571.05
2018-12-01T19:09:07.900Z,100570.16
2018-12-01T19:11:36.899Z,100566.33
2018-12-01T19:14:06.860Z,100566.81
2018-12-01T19:16:35.912Z,100556.67
2018-12-01T19:19:05.113Z,100553.18
2018-12-01T19:21:34.149Z,100555.36
2018-12-01T19:24:11.243Z,100558.87
2018-12-01T19:26:40.282Z,100561.99
2018-12-01T19:29:09.319Z,100550.59
2018-12-01T19:31:38.345Z,100556.34
2018-12-01T19:34:38.334Z,100549.89
2018-12-01T19:37:10.291Z,100544.62
2018-12-01T19:39:39.327Z,100544.17
2018-12-01T19:42:08.414Z,100543.74
2018-12-01T19:44:55.780Z,100537.50
2018-12-01T19:47:24.779Z,100529.23
2018-12-01T19:49:53.829Z,100528.89
2018-12-01T19:52:22.849Z,100525.77
2018-12-01T19:54:59.810Z,100520.99
2018-12-01T19:57:28.882Z,100510.03
2018-12-01T19:59:57.926Z,100505.77
2018-12-01T20:02:29.253Z,100512.72
2018-12-01T20:05:05.245Z,100506.15
2018-12-01T20:07:34.343Z,100502.20
2018-12-01T20:10:03.801Z,100501.83
2018-12-01T20:12:32.898Z,100495.23
2018-12-01T20:15:01.932Z,100491.41
2018-12-01T20:17:30.996Z,100481.86
2018-12-01T20:20:00.046Z,100473.88
2018-12-01T20:22:29.689Z,100468.22
2018-12-01T20:24:58.715Z,100463.73
2018-12-01T20:27:27.756Z,100459.38
2018-12-01T20:29:56.777Z,100446.68
2018-12-01T20:32:25.823Z,100441.05
2018-12-01T20:34:54.902Z,100430.45
2018-12-01T20:37:23.908Z,100427.44
2018-12-01T20:39:52.980Z,100415.61
2018-12-01T20:42:23.009Z,100411.67
2018-12-01T20:44:52.819Z,100411.61
2018-12-01T20:47:21.830Z,100420.86
2018-12-01T20:49:50.919Z,100416.50
2018-12-01T20:52:19.980Z,100416.92
2018-12-01T20:54:49.041Z,100409.97
2018-12-01T20:57:23.519Z,100408.55
2018-12-01T20:59:52.685Z,100400.27
2018-12-01T21:02:21.724Z,100396.37
2018-12-01T21:04:50.778Z,100389.80
2018-12-01T21:07:19.819Z,100390.18
2018-12-01T21:09:48.890Z,100386.25
2018-12-01T21:12:18.198Z,100376.15
2018-12-01T21:14:47.817Z,100381.97
2018-12-01T21:17:16.845Z,100382.36
2018-12-01T21:19:46.091Z,100384.11
2018-12-01T21:22:15.113Z,100385.42
2018-12-01T21:24:44.136Z,100384.06
2018-12-01T21:27:13.201Z,100373.95
2018-12-01T21:29:42.253Z,100378.22
2018-12-01T21:32:11.280Z,100376.84
2018-12-01T21:34:40.320Z,100372.45
2018-12-01T21:37:10.416Z,100368.39
2018-12-01T21:39:39.469Z,100364.08
2018-12-01T21:42:08.582Z,100347.77
2018-12-01T21:44:37.603Z,100360.88
2018-12-01T21:47:13.747Z,100358.29
2018-12-01T21:49:42.791Z,100353.03
2018-12-01T21:52:11.844Z,100356.60
2018-12-01T21:54:40.901Z,100356.66
2018-12-01T21:57:10.543Z,100358.44
2018-12-01T21:59:39.552Z,100359.36
2018-12-01T22:02:08.866Z,100351.48
2018-12-01T22:04:37.958Z,100343.14
2018-12-01T22:07:06.946Z,100341.09
2018-12-01T22:09:35.978Z,100334.43
2018-12-01T22:12:05.302Z,100329.25
2018-12-01T22:14:34.304Z,100323.73
2018-12-01T22:17:03.338Z,100318.86
2018-12-01T22:19:32.348Z,100314.84
2018-12-01T22:22:01.401Z,100310.95
2018-12-01T22:24:30.418Z,100307.08
2018-12-01T22:26:59.416Z,100307.59
2018-12-01T22:29:28.448Z,100308.96
2018-12-01T22:31:57.493Z,100302.25
2018-12-01T22:34:26.661Z,100301.44
2018-12-01T22:36:56.367Z,100301.39
2018-12-01T22:39:24.660Z,100295.70
2018-12-01T22:41:53.651Z,100293.92
2018-12-01T22:44:22.676Z,100294.37
2018-12-01T22:46:51.708Z,100298.27
2018-12-01T22:49:20.751Z,100288.66
2018-12-01T22:51:49.861Z,100284.36
2018-12-01T22:54:19.172Z,100290.38
2018-12-01T22:56:48.177Z,100276.48
2018-12-01T22:59:17.211Z,100276.60
2018-12-01T23:01:46.254Z,100274.86
2018-12-01T23:04:15.282Z,100276.36
2018-12-01T23:06:44.328Z,100278.06
2018-12-01T23:09:13.422Z,100274.23
2018-12-01T23:11:42.464Z,100269.86
2018-12-01T23:14:11.500Z,100261.45
2018-12-01T23:16:40.509Z,100262.90
2018-12-01T23:19:09.511Z,100251.00
2018-12-01T23:21:38.539Z,100253.69
2018-12-01T23:24:07.575Z,100255.45
2018-12-01T23:26:36.634Z,100244.11
2018-12-01T23:29:05.990Z,100246.44
2018-12-01T23:31:35.044Z,100235.06
2018-12-01T23:34:04.107Z,100229.37
2018-12-01T23:36:33.124Z,100228.37
2018-12-01T23:39:02.156Z,100222.17
2018-12-01T23:41:31.177Z,100213.52
2018-12-01T23:44:00.273Z,100202.58
2018-12-01T23:46:29.274Z,100199.06
2018-12-01T23:48:58.270Z,100190.31
2018-12-01T23:51:27.297Z,100184.98
2018-12-01T23:53:56.318Z,100181.91
2018-12-01T23:56:25.338Z,100176.55
2018-12-01T23:58:54.331Z,100172.95
